sensor_id;sensor_type;location;lat;lon;timestamp;pressure;altitude;pressure_sealevel;temperature;humidity
31538;BME280;18147;51.952;6.146;2023-05-16T00:00:06;101751.00;;;10.33;100.00
31538;BME280;18147;51.952;6.146;2023-05-16T00:02:35;101746.84;;;10.47;100.00
31538;BME280;18147;51.952;6.146;2023-05-16T00:05:05;101756.34;;;10.33;100.00
31538;BME280;18147;51.952;6.146;2023-05-16T00:07:45;101765.75;;;10.22;100.00
31538;BME280;18147;51.952;6.146;2023-05-16T00:10:12;101755.66;;;10.30;100.00
31538;BME280;18147;51.952;6.146;2023-05-16T00:12:38;101755.22;;;10.19;100.00
31538;BME280;18147;51.952;6.146;2023-05-16T00:15:10;101763.38;;;9.97;100.00
31538;BME280;18147;51.952;6.146;2023-05-16T00:17:40;101764.84;;;9.83;100.00
31538;BME280;18147;51.952;6.146;2023-05-16T00:20:06;101758.75;;;9.81;100.00
31538;BME280;18147;51.952;6.146;2023-05-16T00:22:33;101758.81;;;9.80;100.00
31538;BME280;18147;51.952;6.146;2023-05-16T00:24:58;101763.59;;;9.92;100.00
31538;BME280;18147;51.952;6.146;2023-05-16T00:27:24;101763.75;;;9.89;100.00
31538;BME280;18147;51.952;6.146;2023-05-16T00:29:50;101758.94;;;9.77;100.00
31538;BME280;18147;51.952;6.146;2023-05-16T00:32:17;101763.09;;;9.64;100.00
31538;BME280;18147;51.952;6.146;2023-05-16T00:34:45;101767.41;;;9.86;100.00
31538;BME280;18147;51.952;6.146;2023-05-16T00:37:12;101766.09;;;9.76;100.00
31538;BME280;18147;51.952;6.146;2023-05-16T00:39:38;101770.75;;;9.71;100.00
31538;BME280;18147;51.952;6.146;2023-05-16T00:42:05;101771.34;;;9.78;100.00
31538;BME280;18147;51.952;6.146;2023-05-16T00:44:37;101766.09;;;9.76;100.00
31538;BME280;18147;51.952;6.146;2023-05-16T00:47:03;101764.56;;;9.71;100.00
31538;BME280;18147;51.952;6.146;2023-05-16T00:49:31;101775.53;;;9.63;100.00
31538;BME280;18147;51.952;6.146;2023-05-16T00:51:57;101778.03;;;9.47;100.00
31538;BME280;18147;51.952;6.146;2023-05-16T00:54:25;101775.09;;;9.53;100.00
31538;BME280;18147;51.952;6.146;2023-05-16T00:56:53;101782.00;;;9.57;100.00
31538;BME280;18147;51.952;6.146;2023-05-16T00:59:19;101781.31;;;9.54;100.00
31538;BME280;18147;51.952;6.146;2023-05-16T01:01:45;101788.75;;;9.46;100.00
31538;BME280;18147;51.952;6.146;2023-05-16T01:04:13;101783.22;;;9.10;100.00
31538;BME280;18147;51.952;6.146;2023-05-16T01:06:38;101785.72;;;9.33;100.00
31538;BME280;18147;51.952;6.146;2023-05-16T01:09:05;101788.41;;;9.33;100.00
31538;BME280;18147;51.952;6.146;2023-05-16T01:11:40;101786.16;;;9.24;100.00
31538;BME280;18147;51.952;6.146;2023-05-16T01:16:49;101787.22;;;9.20;100.00
31538;BME280;18147;51.952;6.146;2023-05-16T01:21:58;101780.84;;;9.24;100.00
31538;BME280;18147;51.952;6.146;2023-05-16T01:27:37;101784.66;;;9.17;100.00
31538;BME280;18147;51.952;6.146;2023-05-16T01:30:15;101785.50;;;9.19;100.00
31538;BME280;18147;51.952;6.146;2023-05-16T01:32:41;101795.56;;;9.11;100.00
31538;BME280;18147;51.952;6.146;2023-05-16T01:35:15;101785.78;;;9.11;100.00
31538;BME280;18147;51.952;6.146;2023-05-16T01:37:48;101794.50;;;8.94;100.00
31538;BME280;18147;51.952;6.146;2023-05-16T01:40:48;101790.81;;;8.97;100.00
31538;BME280;18147;51.952;6.146;2023-05-16T01:43:33;101780.09;;;8.98;100.00
31538;BME280;18147;51.952;6.146;2023-05-16T01:46:10;101789.53;;;8.85;100.00
31538;BME280;18147;51.952;6.146;2023-05-16T01:48:43;101793.44;;;8.76;100.00
31538;BME280;18147;51.952;6.146;2023-05-16T01:51:11;101796.03;;;8.78;100.00
31538;BME280;18147;51.952;6.146;2023-05-16T01:53:37;101792.31;;;8.82;100.00
31538;BME280;18147;51.952;6.146;2023-05-16T01:56:10;101799.31;;;8.85;100.00
31538;BME280;18147;51.952;6.146;2023-05-16T01:58:39;101803.22;;;8.76;100.00
31538;BME280;18147;51.952;6.146;2023-05-16T02:01:06;101798.56;;;8.81;100.00
31538;BME280;18147;51.952;6.146;2023-05-16T02:03:33;101800.97;;;8.65;100.00
31538;BME280;18147;51.952;6.146;2023-05-16T02:05:59;101792.81;;;8.70;100.00
31538;BME280;18147;51.952;6.146;2023-05-16T02:08:25;101797.28;;;8.69;100.00
31538;BME280;18147;51.952;6.146;2023-05-16T02:10:52;101808.09;;;8.65;100.00
31538;BME280;18147;51.952;6.146;2023-05-16T02:13:18;101800.66;;;8.51;100.00
31538;BME280;18147;51.952;6.146;2023-05-16T02:15:44;101804.63;;;8.63;100.00
31538;BME280;18147;51.952;6.146;2023-05-16T02:18:10;101801.66;;;8.48;100.00
31538;BME280;18147;51.952;6.146;2023-05-16T02:20:35;101807.66;;;8.53;100.00
31538;BME280;18147;51.952;6.146;2023-05-16T02:23:01;101807.84;;;8.49;100.00
31538;BME280;18147;51.952;6.146;2023-05-16T02:25:28;101804.50;;;8.44;100.00
31538;BME280;18147;51.952;6.146;2023-05-16T02:27:54;101803.25;;;8.52;100.00
31538;BME280;18147;51.952;6.146;2023-05-16T02:30:19;101808.09;;;8.18;100.00
31538;BME280;18147;51.952;6.146;2023-05-16T02:32:45;101810.16;;;8.33;100.00
31538;BME280;18147;51.952;6.146;2023-05-16T02:35:10;101810.53;;;8.24;100.00
31538;BME280;18147;51.952;6.146;2023-05-16T02:37:36;101813.91;;;8.29;100.00
31538;BME280;18147;51.952;6.146;2023-05-16T02:40:03;101811.25;;;8.29;100.00
31538;BME280;18147;51.952;6.146;2023-05-16T02:42:32;101809.19;;;8.36;100.00
31538;BME280;18147;51.952;6.146;2023-05-16T02:44:58;101810.22;;;8.31;100.00
31538;BME280;18147;51.952;6.146;2023-05-16T02:47:24;101817.41;;;8.29;100.00
31538;BME280;18147;51.952;6.146;2023-05-16T02:49:49;101828.22;;;8.25;100.00
31538;BME280;18147;51.952;6.146;2023-05-16T02:52:18;101830.97;;;8.22;100.00
31538;BME280;18147;51.952;6.146;2023-05-16T02:54:43;101826.25;;;8.30;100.00
31538;BME280;18147;51.952;6.146;2023-05-16T02:57:09;101833.09;;;8.12;100.00
31538;BME280;18147;51.952;6.146;2023-05-16T02:59:35;101836.63;;;8.13;100.00
31538;BME280;18147;51.952;6.146;2023-05-16T03:02:00;101839.81;;;8.22;100.00
31538;BME280;18147;51.952;6.146;2023-05-16T03:04:26;101837.50;;;8.13;100.00
31538;BME280;18147;51.952;6.146;2023-05-16T03:06:52;101837.31;;;8.18;100.00
31538;BME280;18147;51.952;6.146;2023-05-16T03:09:18;101840.91;;;8.17;100.00
31538;BME280;18147;51.952;6.146;2023-05-16T03:11:44;101841.91;;;8.14;100.00
31538;BME280;18147;51.952;6.146;2023-05-16T03:14:10;101848.09;;;8.15;100.00
31538;BME280;18147;51.952;6.146;2023-05-16T03:16:36;101849.19;;;8.09;100.00
31538;BME280;18147;51.952;6.146;2023-05-16T03:19:03;101843.81;;;8.11;100.00
31538;BME280;18147;51.952;6.146;2023-05-16T03:21:32;101841.38;;;8.04;100.00
31538;BME280;18147;51.952;6.146;2023-05-16T03:23:58;101849.22;;;8.08;100.00
31538;BME280;18147;51.952;6.146;2023-05-16T03:26:24;101851.78;;;8.11;100.00
31538;BME280;18147;51.952;6.146;2023-05-16T03:28:50;101857.09;;;8.11;100.00
31538;BME280;18147;51.952;6.146;2023-05-16T03:31:16;101853.72;;;8.05;100.00
31538;BME280;18147;51.952;6.146;2023-05-16T03:33:42;101855.22;;;8.13;100.00
31538;BME280;18147;51.952;6.146;2023-05-16T03:36:08;101856.22;;;8.10;100.00
31538;BME280;18147;51.952;6.146;2023-05-16T03:38:35;101863.50;;;8.05;100.00
31538;BME280;18147;51.952;6.146;2023-05-16T03:41:00;101871.38;;;8.07;100.00
31538;BME280;18147;51.952;6.146;2023-05-16T03:43:26;101873.41;;;8.00;100.00
31538;BME280;18147;51.952;6.146;2023-05-16T03:45:52;101876.31;;;7.92;100.00
31538;BME280;18147;51.952;6.146;2023-05-16T03:48:17;101879.75;;;7.96;100.00
31538;BME280;18147;51.952;6.146;2023-05-16T03:50:43;101885.84;;;7.98;100.00
31538;BME280;18147;51.952;6.146;2023-05-16T03:53:09;101879.25;;;8.10;100.00
31538;BME280;18147;51.952;6.146;2023-05-16T03:55:35;101886.13;;;8.15;100.00
31538;BME280;18147;51.952;6.146;2023-05-16T03:58:00;101882.56;;;8.16;100.00
31538;BME280;18147;51.952;6.146;2023-05-16T04:00:26;101887.47;;;8.27;100.00
31538;BME280;18147;51.952;6.146;2023-05-16T04:02:52;101879.41;;;8.77;100.00
31538;BME280;18147;51.952;6.146;2023-05-16T04:05:18;101885.22;;;9.08;100.00
31538;BME280;18147;51.952;6.146;2023-05-16T04:07:43;101875.78;;;9.44;100.00
31538;BME280;18147;51.952;6.146;2023-05-16T04:10:09;101877.41;;;9.89;100.00
31538;BME280;18147;51.952;6.146;2023-05-16T04:12:35;101877.91;;;10.37;100.00
31538;BME280;18147;51.952;6.146;2023-05-16T04:15:02;101880.81;;;10.71;100.00
31538;BME280;18147;51.952;6.146;2023-05-16T04:17:28;101882.31;;;10.95;100.00
31538;BME280;18147;51.952;6.146;2023-05-16T04:19:54;101882.75;;;11.05;100.00
31538;BME280;18147;51.952;6.146;2023-05-16T04:22:20;101875.03;;;11.35;100.00
31538;BME280;18147;51.952;6.146;2023-05-16T04:24:47;101882.50;;;11.63;100.00
31538;BME280;18147;51.952;6.146;2023-05-16T04:27:13;101885.78;;;12.20;100.00
31538;BME280;18147;51.952;6.146;2023-05-16T04:29:39;101885.00;;;12.67;100.00
31538;BME280;18147;51.952;6.146;2023-05-16T04:32:05;101888.38;;;13.34;97.44
31538;BME280;18147;51.952;6.146;2023-05-16T04:34:33;101888.25;;;13.51;89.79
31538;BME280;18147;51.952;6.146;2023-05-16T04:37:06;101886.94;;;13.58;87.80
31538;BME280;18147;51.952;6.146;2023-05-16T04:39:33;101885.25;;;13.71;86.99
31538;BME280;18147;51.952;6.146;2023-05-16T04:42:00;101891.47;;;14.59;84.47
31538;BME280;18147;51.952;6.146;2023-05-16T04:44:25;101895.66;;;14.92;81.95
31538;BME280;18147;51.952;6.146;2023-05-16T04:46:51;101895.31;;;14.69;77.11
31538;BME280;18147;51.952;6.146;2023-05-16T04:49:18;101897.09;;;15.24;76.08
31538;BME280;18147;51.952;6.146;2023-05-16T04:51:45;101892.66;;;15.77;74.08
31538;BME280;18147;51.952;6.146;2023-05-16T04:54:11;101888.91;;;16.31;71.81
31538;BME280;18147;51.952;6.146;2023-05-16T04:56:37;101889.09;;;16.66;70.19
31538;BME280;18147;51.952;6.146;2023-05-16T04:59:03;101895.25;;;16.68;68.06
31538;BME280;18147;51.952;6.146;2023-05-16T05:01:31;101899.47;;;17.09;67.61
31538;BME280;18147;51.952;6.146;2023-05-16T05:03:57;101904.22;;;16.18;66.82
31538;BME280;18147;51.952;6.146;2023-05-16T05:06:22;101899.25;;;15.99;71.15
31538;BME280;18147;51.952;6.146;2023-05-16T05:08:48;101896.25;;;16.42;68.96
31538;BME280;18147;51.952;6.146;2023-05-16T05:11:14;101905.50;;;16.63;67.28
31538;BME280;18147;51.952;6.146;2023-05-16T05:13:39;101908.03;;;15.48;69.12
31538;BME280;18147;51.952;6.146;2023-05-16T05:16:05;101924.44;;;14.90;73.71
31538;BME280;18147;51.952;6.146;2023-05-16T05:18:31;101917.94;;;14.65;76.83
31538;BME280;18147;51.952;6.146;2023-05-16T05:20:57;101921.47;;;14.37;78.45
31538;BME280;18147;51.952;6.146;2023-05-16T05:23:23;101911.22;;;15.41;75.61
31538;BME280;18147;51.952;6.146;2023-05-16T05:25:49;101917.91;;;15.21;75.31
31538;BME280;18147;51.952;6.146;2023-05-16T05:28:14;101915.31;;;16.13;74.14
31538;BME280;18147;51.952;6.146;2023-05-16T05:30:40;101915.84;;;16.82;69.94
31538;BME280;18147;51.952;6.146;2023-05-16T05:33:06;101916.88;;;17.16;68.66
31538;BME280;18147;51.952;6.146;2023-05-16T05:35:31;101918.72;;;17.16;68.24
31538;BME280;18147;51.952;6.146;2023-05-16T05:37:58;101922.28;;;16.67;67.08
31538;BME280;18147;51.952;6.146;2023-05-16T05:40:24;101924.78;;;16.82;68.10
31538;BME280;18147;51.952;6.146;2023-05-16T05:42:49;101932.06;;;17.30;68.41
31538;BME280;18147;51.952;6.146;2023-05-16T05:45:15;101926.88;;;17.27;67.14
31538;BME280;18147;51.952;6.146;2023-05-16T05:47:42;101936.19;;;16.61;67.23
31538;BME280;18147;51.952;6.146;2023-05-16T05:50:08;101937.19;;;16.72;66.91
31538;BME280;18147;51.952;6.146;2023-05-16T05:52:36;101940.44;;;17.01;64.34
31538;BME280;18147;51.952;6.146;2023-05-16T05:55:03;101937.03;;;16.61;66.21
31538;BME280;18147;51.952;6.146;2023-05-16T05:57:28;101946.31;;;16.44;66.59
31538;BME280;18147;51.952;6.146;2023-05-16T05:59:54;101937.81;;;16.12;69.25
31538;BME280;18147;51.952;6.146;2023-05-16T06:02:19;101942.75;;;16.31;67.82
31538;BME280;18147;51.952;6.146;2023-05-16T06:04:45;101944.25;;;16.10;68.77
31538;BME280;18147;51.952;6.146;2023-05-16T06:07:11;101945.56;;;16.29;66.92
31538;BME280;18147;51.952;6.146;2023-05-16T06:09:37;101946.94;;;15.97;69.17
31538;BME280;18147;51.952;6.146;2023-05-16T06:12:03;101948.38;;;15.75;69.93
31538;BME280;18147;51.952;6.146;2023-05-16T06:14:29;101953.84;;;16.39;67.04
31538;BME280;18147;51.952;6.146;2023-05-16T06:16:55;101949.00;;;16.19;70.29
31538;BME280;18147;51.952;6.146;2023-05-16T06:19:21;101957.63;;;16.75;66.28
31538;BME280;18147;51.952;6.146;2023-05-16T06:21:47;101961.81;;;16.41;66.89
31538;BME280;18147;51.952;6.146;2023-05-16T06:24:12;101962.38;;;16.33;68.90
31538;BME280;18147;51.952;6.146;2023-05-16T06:26:39;101957.78;;;15.95;67.31
31538;BME280;18147;51.952;6.146;2023-05-16T06:29:05;101956.97;;;16.33;68.58
31538;BME280;18147;51.952;6.146;2023-05-16T06:31:31;101959.69;;;16.33;65.91
31538;BME280;18147;51.952;6.146;2023-05-16T06:33:57;101948.81;;;16.22;65.66
31538;BME280;18147;51.952;6.146;2023-05-16T06:36:22;101964.94;;;15.55;66.44
31538;BME280;18147;51.952;6.146;2023-05-16T06:38:48;101977.75;;;15.51;68.35
31538;BME280;18147;51.952;6.146;2023-05-16T06:41:15;101975.84;;;15.39;69.05
31538;BME280;18147;51.952;6.146;2023-05-16T06:43:41;101969.34;;;14.73;72.06
31538;BME280;18147;51.952;6.146;2023-05-16T06:46:06;101975.19;;;14.66;73.81
31538;BME280;18147;51.952;6.146;2023-05-16T06:48:33;101976.63;;;14.57;76.48
31538;BME280;18147;51.952;6.146;2023-05-16T06:51:00;101980.00;;;14.31;78.57
31538;BME280;18147;51.952;6.146;2023-05-16T06:53:25;101985.81;;;14.09;79.82
31538;BME280;18147;51.952;6.146;2023-05-16T06:55:51;101981.91;;;14.29;80.72
31538;BME280;18147;51.952;6.146;2023-05-16T06:58:17;101980.63;;;14.36;80.95
31538;BME280;18147;51.952;6.146;2023-05-16T07:00:43;101977.97;;;14.20;82.42
31538;BME280;18147;51.952;6.146;2023-05-16T07:03:09;101977.78;;;14.23;82.37
31538;BME280;18147;51.952;6.146;2023-05-16T07:05:35;101981.13;;;14.12;82.17
31538;BME280;18147;51.952;6.146;2023-05-16T07:08:01;101987.00;;;13.89;84.35
31538;BME280;18147;51.952;6.146;2023-05-16T07:10:26;101984.25;;;14.05;86.09
31538;BME280;18147;51.952;6.146;2023-05-16T07:12:52;101992.28;;;13.74;85.92
31538;BME280;18147;51.952;6.146;2023-05-16T07:15:18;101996.69;;;13.91;85.18
31538;BME280;18147;51.952;6.146;2023-05-16T07:17:43;101983.91;;;13.65;85.64
31538;BME280;18147;51.952;6.146;2023-05-16T07:20:09;101997.63;;;13.90;85.94
31538;BME280;18147;51.952;6.146;2023-05-16T07:22:38;101983.00;;;14.26;84.95
31538;BME280;18147;51.952;6.146;2023-05-16T07:25:06;101986.06;;;14.34;85.14
31538;BME280;18147;51.952;6.146;2023-05-16T07:27:37;101984.31;;;14.92;84.89
31538;BME280;18147;51.952;6.146;2023-05-16T07:30:07;102000.16;;;15.38;81.39
31538;BME280;18147;51.952;6.146;2023-05-16T07:32:35;102003.56;;;15.13;77.01
31538;BME280;18147;51.952;6.146;2023-05-16T07:35:03;101998.06;;;15.28;77.43
31538;BME280;18147;51.952;6.146;2023-05-16T07:37:29;101998.72;;;15.32;75.13
31538;BME280;18147;51.952;6.146;2023-05-16T07:39:54;101988.63;;;15.36;72.58
31538;BME280;18147;51.952;6.146;2023-05-16T07:42:20;101983.25;;;16.17;71.95
31538;BME280;18147;51.952;6.146;2023-05-16T07:44:45;101979.59;;;16.56;69.21
31538;BME280;18147;51.952;6.146;2023-05-16T07:47:11;101979.25;;;16.61;69.19
31538;BME280;18147;51.952;6.146;2023-05-16T07:49:36;101976.47;;;16.37;68.55
31538;BME280;18147;51.952;6.146;2023-05-16T07:52:05;101985.09;;;15.62;70.50
31538;BME280;18147;51.952;6.146;2023-05-16T07:54:33;101991.66;;;15.17;72.20
31538;BME280;18147;51.952;6.146;2023-05-16T07:57:01;101997.13;;;14.58;72.62
31538;BME280;18147;51.952;6.146;2023-05-16T07:59:27;102003.50;;;14.27;74.02
31538;BME280;18147;51.952;6.146;2023-05-16T08:01:53;101992.88;;;14.10;77.58
31538;BME280;18147;51.952;6.146;2023-05-16T08:04:19;101998.25;;;13.80;76.96
31538;BME280;18147;51.952;6.146;2023-05-16T08:06:45;101992.00;;;14.39;75.80
31538;BME280;18147;51.952;6.146;2023-05-16T08:09:11;101989.16;;;14.99;74.53
31538;BME280;18147;51.952;6.146;2023-05-16T08:11:36;101991.00;;;15.13;72.40
31538;BME280;18147;51.952;6.146;2023-05-16T08:14:05;101992.25;;;14.93;73.72
31538;BME280;18147;51.952;6.146;2023-05-16T08:16:31;101995.47;;;13.97;76.53
31538;BME280;18147;51.952;6.146;2023-05-16T08:18:56;101996.16;;;14.15;78.55
31538;BME280;18147;51.952;6.146;2023-05-16T08:21:22;101994.56;;;13.35;82.23
31538;BME280;18147;51.952;6.146;2023-05-16T08:23:48;102010.97;;;13.60;81.42
31538;BME280;18147;51.952;6.146;2023-05-16T08:26:13;102007.00;;;13.67;77.53
31538;BME280;18147;51.952;6.146;2023-05-16T08:28:39;101999.97;;;13.96;79.48
31538;BME280;18147;51.952;6.146;2023-05-16T08:31:05;101994.75;;;14.68;80.17
31538;BME280;18147;51.952;6.146;2023-05-16T08:33:31;101988.81;;;15.74;78.42
31538;BME280;18147;51.952;6.146;2023-05-16T08:35:57;101988.69;;;15.48;69.63
31538;BME280;18147;51.952;6.146;2023-05-16T08:38:23;101989.69;;;14.92;69.58
31538;BME280;18147;51.952;6.146;2023-05-16T08:40:48;102002.63;;;13.66;80.34
31538;BME280;18147;51.952;6.146;2023-05-16T08:43:14;102011.16;;;12.77;93.88
31538;BME280;18147;51.952;6.146;2023-05-16T08:45:40;102011.19;;;12.59;100.00
31538;BME280;18147;51.952;6.146;2023-05-16T08:48:07;102009.63;;;13.53;99.90
31538;BME280;18147;51.952;6.146;2023-05-16T08:50:35;102011.47;;;13.19;100.00
31538;BME280;18147;51.952;6.146;2023-05-16T08:53:06;102011.97;;;13.28;100.00
31538;BME280;18147;51.952;6.146;2023-05-16T08:55:35;102007.03;;;14.28;95.13
31538;BME280;18147;51.952;6.146;2023-05-16T08:58:03;102002.72;;;14.39;98.63
31538;BME280;18147;51.952;6.146;2023-05-16T09:00:28;102000.59;;;14.60;82.04
31538;BME280;18147;51.952;6.146;2023-05-16T09:02:54;102004.44;;;14.99;88.12
31538;BME280;18147;51.952;6.146;2023-05-16T09:05:21;102004.72;;;14.80;86.24
31538;BME280;18147;51.952;6.146;2023-05-16T09:07:47;101998.75;;;15.03;79.36
31538;BME280;18147;51.952;6.146;2023-05-16T09:10:12;101999.88;;;14.42;76.39
31538;BME280;18147;51.952;6.146;2023-05-16T09:12:39;101995.22;;;14.16;75.59
31538;BME280;18147;51.952;6.146;2023-05-16T09:15:07;101974.94;;;16.20;71.97
31538;BME280;18147;51.952;6.146;2023-05-16T09:17:39;101980.69;;;16.79;67.11
31538;BME280;18147;51.952;6.146;2023-05-16T09:20:16;101975.72;;;16.98;62.86
31538;BME280;18147;51.952;6.146;2023-05-16T09:22:56;101982.28;;;16.94;62.14
31538;BME280;18147;51.952;6.146;2023-05-16T09:25:25;101980.63;;;17.41;61.56
31538;BME280;18147;51.952;6.146;2023-05-16T09:27:58;101983.06;;;17.33;59.49
31538;BME280;18147;51.952;6.146;2023-05-16T09:30:32;101989.53;;;17.30;57.69
31538;BME280;18147;51.952;6.146;2023-05-16T09:33:01;102008.53;;;16.14;60.30
31538;BME280;18147;51.952;6.146;2023-05-16T09:35:30;102020.44;;;14.58;66.02
31538;BME280;18147;51.952;6.146;2023-05-16T09:37:56;102037.09;;;13.72;68.00
31538;BME280;18147;51.952;6.146;2023-05-16T09:40:22;102044.28;;;13.72;71.74
31538;BME280;18147;51.952;6.146;2023-05-16T09:45:35;102035.53;;;12.88;84.54
31538;BME280;18147;51.952;6.146;2023-05-16T09:48:04;102036.47;;;12.19;99.58
31538;BME280;18147;51.952;6.146;2023-05-16T09:50:35;102038.69;;;12.11;98.17
31538;BME280;18147;51.952;6.146;2023-05-16T09:53:02;102041.47;;;12.77;94.83
31538;BME280;18147;51.952;6.146;2023-05-16T09:55:28;102032.13;;;13.02;95.75
31538;BME280;18147;51.952;6.146;2023-05-16T09:57:55;102029.84;;;13.27;87.20
31538;BME280;18147;51.952;6.146;2023-05-16T10:00:20;102027.91;;;13.92;86.27
31538;BME280;18147;51.952;6.146;2023-05-16T10:02:46;102029.25;;;14.30;78.35
31538;BME280;18147;51.952;6.146;2023-05-16T10:05:13;102019.69;;;14.84;81.26
31538;BME280;18147;51.952;6.146;2023-05-16T10:07:42;102017.84;;;15.13;76.19
31538;BME280;18147;51.952;6.146;2023-05-16T10:10:08;102008.72;;;16.11;74.33
31538;BME280;18147;51.952;6.146;2023-05-16T10:12:35;102018.81;;;15.26;73.86
31538;BME280;18147;51.952;6.146;2023-05-16T10:15:08;102036.09;;;14.80;71.93
31538;BME280;18147;51.952;6.146;2023-05-16T10:17:37;102044.56;;;13.52;91.34
31538;BME280;18147;51.952;6.146;2023-05-16T10:20:06;102036.50;;;13.36;91.70
31538;BME280;18147;51.952;6.146;2023-05-16T10:22:34;102027.94;;;13.29;87.24
31538;BME280;18147;51.952;6.146;2023-05-16T10:25:23;102025.91;;;13.01;78.95
31538;BME280;18147;51.952;6.146;2023-05-16T10:27:50;102024.75;;;13.23;78.82
31538;BME280;18147;51.952;6.146;2023-05-16T10:30:16;102028.59;;;13.17;77.38
31538;BME280;18147;51.952;6.146;2023-05-16T10:32:44;102023.72;;;13.57;81.95
31538;BME280;18147;51.952;6.146;2023-05-16T10:35:10;102023.78;;;13.55;80.43
31538;BME280;18147;51.952;6.146;2023-05-16T10:37:36;102019.88;;;14.22;76.95
31538;BME280;18147;51.952;6.146;2023-05-16T10:40:04;102006.56;;;14.35;77.21
31538;BME280;18147;51.952;6.146;2023-05-16T10:42:31;101997.53;;;14.95;69.65
31538;BME280;18147;51.952;6.146;2023-05-16T10:45:18;102000.03;;;14.69;72.29
31538;BME280;18147;51.952;6.146;2023-05-16T10:48:00;101999.78;;;15.29;67.04
31538;BME280;18147;51.952;6.146;2023-05-16T10:53:22;101988.50;;;16.18;65.79
31538;BME280;18147;51.952;6.146;2023-05-16T11:01:23;101986.00;;;15.48;66.82
31538;BME280;18147;51.952;6.146;2023-05-16T11:06:24;101986.72;;;15.38;67.23
31538;BME280;18147;51.952;6.146;2023-05-16T11:14:05;101971.19;;;16.48;58.82
31538;BME280;18147;51.952;6.146;2023-05-16T11:16:34;101981.19;;;16.20;61.12
31538;BME280;18147;51.952;6.146;2023-05-16T11:19:06;101988.19;;;15.56;63.21
31538;BME280;18147;51.952;6.146;2023-05-16T11:22:09;101971.19;;;16.35;65.69
31538;BME280;18147;51.952;6.146;2023-05-16T11:24:37;101974.94;;;17.09;60.68
31538;BME280;18147;51.952;6.146;2023-05-16T11:27:08;101973.47;;;16.92;58.99
31538;BME280;18147;51.952;6.146;2023-05-16T11:29:36;101974.97;;;16.58;57.63
31538;BME280;18147;51.952;6.146;2023-05-16T11:32:04;101983.22;;;15.50;56.35
31538;BME280;18147;51.952;6.146;2023-05-16T11:34:31;101986.59;;;14.69;58.07
31538;BME280;18147;51.952;6.146;2023-05-16T11:37:00;101988.41;;;14.55;59.10
31538;BME280;18147;51.952;6.146;2023-05-16T11:39:26;101989.28;;;15.12;59.74
31538;BME280;18147;51.952;6.146;2023-05-16T11:41:52;101986.41;;;15.42;61.03
31538;BME280;18147;51.952;6.146;2023-05-16T11:44:18;101982.59;;;15.73;61.40
31538;BME280;18147;51.952;6.146;2023-05-16T11:46:43;101971.50;;;16.69;57.87
31538;BME280;18147;51.952;6.146;2023-05-16T11:49:10;101977.88;;;16.42;56.28
31538;BME280;18147;51.952;6.146;2023-05-16T11:51:41;101982.59;;;16.51;56.61
31538;BME280;18147;51.952;6.146;2023-05-16T11:54:11;101976.53;;;15.97;54.31
31538;BME280;18147;51.952;6.146;2023-05-16T11:56:38;101988.88;;;15.87;56.53
31538;BME280;18147;51.952;6.146;2023-05-16T11:59:05;101979.59;;;16.69;60.83
31538;BME280;18147;51.952;6.146;2023-05-16T12:01:39;101985.63;;;17.34;55.23
31538;BME280;18147;51.952;6.146;2023-05-16T12:04:15;101986.50;;;16.98;54.01
31538;BME280;18147;51.952;6.146;2023-05-16T12:06:41;101987.31;;;17.12;53.60
31538;BME280;18147;51.952;6.146;2023-05-16T12:09:13;101979.19;;;16.75;48.97
31538;BME280;18147;51.952;6.146;2023-05-16T12:11:40;101998.16;;;16.73;50.17
31538;BME280;18147;51.952;6.146;2023-05-16T12:14:08;101986.63;;;16.71;50.37
31538;BME280;18147;51.952;6.146;2023-05-16T12:16:35;101995.03;;;16.79;52.16
31538;BME280;18147;51.952;6.146;2023-05-16T12:19:06;102001.63;;;16.10;53.98
31538;BME280;18147;51.952;6.146;2023-05-16T12:21:36;102005.03;;;15.31;52.65
31538;BME280;18147;51.952;6.146;2023-05-16T12:24:04;101995.84;;;16.29;53.71
31538;BME280;18147;51.952;6.146;2023-05-16T12:26:31;101996.03;;;16.13;55.63
31538;BME280;18147;51.952;6.146;2023-05-16T12:28:59;102009.38;;;16.02;57.81
31538;BME280;18147;51.952;6.146;2023-05-16T12:31:35;102001.16;;;16.69;54.36
31538;BME280;18147;51.952;6.146;2023-05-16T12:34:01;101997.19;;;16.87;52.77
31538;BME280;18147;51.952;6.146;2023-05-16T12:36:32;101995.22;;;17.39;51.74
31538;BME280;18147;51.952;6.146;2023-05-16T12:39:00;101995.31;;;17.98;52.44
31538;BME280;18147;51.952;6.146;2023-05-16T12:41:29;101986.59;;;17.94;49.64
31538;BME280;18147;51.952;6.146;2023-05-16T12:44:12;101989.59;;;17.66;50.89
31538;BME280;18147;51.952;6.146;2023-05-16T12:46:43;102000.88;;;17.23;51.25
31538;BME280;18147;51.952;6.146;2023-05-16T12:49:10;101999.41;;;17.06;52.47
31538;BME280;18147;51.952;6.146;2023-05-16T12:51:36;102007.28;;;17.09;52.93
31538;BME280;18147;51.952;6.146;2023-05-16T12:54:10;101991.88;;;16.60;49.26
31538;BME280;18147;51.952;6.146;2023-05-16T12:56:40;101999.50;;;16.41;49.99
31538;BME280;18147;51.952;6.146;2023-05-16T12:59:07;102004.78;;;16.55;50.13
31538;BME280;18147;51.952;6.146;2023-05-16T13:01:36;102010.53;;;16.63;51.67
31538;BME280;18147;51.952;6.146;2023-05-16T13:04:07;102010.84;;;16.71;51.97
31538;BME280;18147;51.952;6.146;2023-05-16T13:06:34;102017.50;;;16.66;53.67
31538;BME280;18147;51.952;6.146;2023-05-16T13:08:59;102018.44;;;16.26;52.62
31538;BME280;18147;51.952;6.146;2023-05-16T13:11:26;102028.22;;;16.15;52.89
31538;BME280;18147;51.952;6.146;2023-05-16T13:13:52;102018.47;;;15.87;52.63
31538;BME280;18147;51.952;6.146;2023-05-16T13:16:18;102021.28;;;16.50;54.92
31538;BME280;18147;51.952;6.146;2023-05-16T13:18:43;102021.75;;;16.82;53.86